Carrabelle, Florida
Current Conditions -  °F | °C
As of 10:26 AM on Monday 24 Nov 2014 (Local Time) from KAAF Reporting Station
Moderate Rain Moderate Rain  
Wind Chill: 72°   Ceiling: 3100
Heat Index: 72°   Visibility: 2.5mi
Dew Point: 69°   Wind: 13mph
Humidity: 91%   Direction: 220°SW
Pressure: 29.88"   Gusts: NA
Location:  29.85°N, 84.66°W
Report Text: KAAF 241526Z AUTO 22011KT 2 1/2SM RA BR FEW018 BKN031 OVC070 22/21 A2988 RMK AO2 P0046 T02220206 TSNO
Loading
Personal Weather Stations






























Interactive Weather Map New forecast layout! Learn more

10-Day Weather Forecast

Advertisements
Track Severe Weather on mobile